Time;durP1;ratioP1;P1;durP2;ratioP2;P2;SDS_P1;SDS_P2;PMS_P1;PMS_P2;Temp;Humidity;BMP_temperature;BMP_pressure;BME280_temperature;BME280_humidity;BME280_pressure;Samples;Min_cycle;Max_cycle;Signal;HPM_P1;HPM_P2
2021/09/27 00:00:44;;;;;;;13.80;7.70;;;;;;;;;;5042744;28;20045;-60
2021/09/27 00:03:12;;;;;;;15.55;6.93;;;;;;;;;;5031838;28;20032;-60
2021/09/27 00:05:40;;;;;;;13.32;7.40;;;;;;;;;;5068300;28;20044;-58
2021/09/27 00:08:07;;;;;;;18.27;7.20;;;;;;;;;;5067291;28;20044;-60
2021/09/27 00:10:35;;;;;;;17.38;6.70;;;;;;;;;;5051882;28;20122;-56
2021/09/27 00:13:06;;;;;;;12.30;6.90;;;;;;;;;;5064969;28;20118;-60
2021/09/27 00:15:34;;;;;;;16.35;7.25;;;;;;;;;;5047103;28;20044;-52
2021/09/27 00:18:00;;;;;;;14.65;6.97;;;;;;;;;;5047926;28;20037;-57
2021/09/27 00:20:27;;;;;;;13.50;7.43;;;;;;;;;;5043732;28;20037;-55
2021/09/27 00:23:03;;;;;;;16.88;8.05;;;;;;;;;;5047042;28;20036;-59
2021/09/27 00:25:29;;;;;;;12.40;7.22;;;;;;;;;;5047880;28;20068;-58
2021/09/27 00:27:56;;;;;;;15.32;6.97;;;;;;;;;;5057947;28;20048;-60
2021/09/27 00:30:23;;;;;;;16.25;8.38;;;;;;;;;;5050786;28;20041;-61
2021/09/27 00:32:51;;;;;;;16.50;7.90;;;;;;;;;;5058637;28;20044;-60
2021/09/27 00:35:19;;;;;;;15.98;7.65;;;;;;;;;;5067847;28;20041;-60
2021/09/27 00:37:48;;;;;;;13.43;7.15;;;;;;;;;;5063050;28;20044;-60
2021/09/27 00:40:18;;;;;;;12.85;7.25;;;;;;;;;;5067829;28;20040;-60
2021/09/27 00:42:48;;;;;;;16.33;6.85;;;;;;;;;;5050250;28;20048;-60
2021/09/27 00:45:16;;;;;;;14.45;6.63;;;;;;;;;;5047444;28;20037;-60
2021/09/27 00:47:42;;;;;;;14.33;7.27;;;;;;;;;;5059411;28;20052;-57
2021/09/27 00:50:10;;;;;;;13.20;6.85;;;;;;;;;;5060588;28;20281;-59
2021/09/27 00:52:37;;;;;;;14.52;7.25;;;;;;;;;;5041785;28;20040;-54
2021/09/27 00:55:04;;;;;;;13.07;6.43;;;;;;;;;;5062490;28;20048;-58
2021/09/27 00:57:32;;;;;;;16.70;7.10;;;;;;;;;;5027525;28;20091;-54
2021/09/27 00:59:58;;;;;;;12.67;6.57;;;;;;;;;;5042709;28;20111;-56
2021/09/27 01:02:26;;;;;;;13.23;6.30;;;;;;;;;;5037586;28;20293;-57
2021/09/27 01:04:53;;;;;;;12.50;7.25;;;;;;;;;;5034609;28;20052;-56
2021/09/27 01:07:22;;;;;;;16.67;7.70;;;;;;;;;;5056267;28;20073;-55
2021/09/27 01:10:00;;;;;;;14.23;6.75;;;;;;;;;;5043259;28;20033;-59
2021/09/27 01:12:39;;;;;;;12.13;6.65;;;;;;;;;;5076351;28;20041;-56
2021/09/27 01:15:12;;;;;;;11.45;6.35;;;;;;;;;;5064702;28;20032;-59
2021/09/27 01:17:44;;;;;;;13.52;7.00;;;;;;;;;;5080067;28;20113;-57
2021/09/27 01:20:37;;;;;;;13.30;6.63;;;;;;;;;;5065309;28;20040;-58
2021/09/27 01:23:19;;;;;;;12.02;6.03;;;;;;;;;;5064418;28;20032;-58
2021/09/27 01:25:55;;;;;;;12.63;6.20;;;;;;;;;;5054852;28;20053;-58
2021/09/27 01:28:37;;;;;;;15.82;6.70;;;;;;;;;;5061088;28;20051;-60
2021/09/27 01:31:15;;;;;;;16.45;6.80;;;;;;;;;;5063402;28;20047;-61
2021/09/27 01:33:46;;;;;;;14.70;6.20;;;;;;;;;;5044117;28;20051;-60
2021/09/27 01:36:15;;;;;;;14.38;6.90;;;;;;;;;;5047776;28;20036;-60
2021/09/27 01:38:45;;;;;;;12.35;6.30;;;;;;;;;;5048333;28;20047;-54
2021/09/27 01:41:19;;;;;;;16.95;5.93;;;;;;;;;;5048663;28;20045;-52
2021/09/27 01:43:48;;;;;;;11.90;6.00;;;;;;;;;;5058027;28;20048;-52
2021/09/27 01:46:19;;;;;;;13.10;6.78;;;;;;;;;;5062215;28;20100;-53
2021/09/27 01:48:50;;;;;;;19.60;6.35;;;;;;;;;;5061343;28;20049;-55
2021/09/27 01:51:22;;;;;;;17.35;6.57;;;;;;;;;;5079861;28;20386;-56
2021/09/27 01:53:51;;;;;;;13.65;6.47;;;;;;;;;;5055111;28;20122;-56
2021/09/27 01:56:17;;;;;;;;;;;;;;;;;;5042458;28;20041;-54
2021/09/27 01:58:56;;;;;;;13.13;6.45;;;;;;;;;;5039174;28;19913;-57
2021/09/27 02:01:27;;;;;;;11.73;6.18;;;;;;;;;;5049974;28;20032;-55
2021/09/27 02:03:57;;;;;;;13.18;6.20;;;;;;;;;;5043589;28;20041;-57
2021/09/27 02:06:25;;;;;;;14.63;6.85;;;;;;;;;;5023595;28;20041;-53
2021/09/27 02:08:56;;;;;;;16.45;6.20;;;;;;;;;;5042084;28;20151;-55
2021/09/27 02:11:26;;;;;;;13.07;6.40;;;;;;;;;;5042675;28;20044;-54
2021/09/27 02:13:56;;;;;;;14.93;6.88;;;;;;;;;;5045620;28;20087;-59
2021/09/27 02:16:27;;;;;;;17.55;6.85;;;;;;;;;;5062315;28;20077;-55
2021/09/27 02:19:00;;;;;;;13.23;6.88;;;;;;;;;;5045712;28;20039;-56
2021/09/27 02:21:34;;;;;;;13.57;6.57;;;;;;;;;;5059522;28;20033;-58
2021/09/27 02:24:03;;;;;;;13.35;6.93;;;;;;;;;;5059360;28;20041;-57
2021/09/27 02:26:29;;;;;;;;;;;;;;;;;;5039807;28;20037;-56
2021/09/27 02:28:56;;;;;;;13.15;5.90;;;;;;;;;;5032814;28;19949;-56
2021/09/27 02:31:29;;;;;;;16.48;6.88;;;;;;;;;;5042858;28;20044;-57
2021/09/27 02:33:59;;;;;;;14.90;6.45;;;;;;;;;;5049412;28;20055;-60
2021/09/27 02:36:27;;;;;;;14.10;6.53;;;;;;;;;;5062810;28;20041;-56
2021/09/27 02:38:57;;;;;;;13.95;6.70;;;;;;;;;;5066343;28;20037;-55
2021/09/27 02:41:28;;;;;;;15.55;6.50;;;;;;;;;;5028190;28;20037;-59
2021/09/27 02:43:54;;;;;;;14.20;6.50;;;;;;;;;;5028691;28;20150;-61
2021/09/27 02:46:22;;;;;;;13.05;6.45;;;;;;;;;;5025474;28;20045;-58
2021/09/27 02:48:56;;;;;;;16.63;6.75;;;;;;;;;;5024256;28;20060;-55
2021/09/27 02:51:30;;;;;;;11.45;6.63;;;;;;;;;;5042850;28;20056;-60
2021/09/27 02:53:57;;;;;;;14.93;6.30;;;;;;;;;;5025954;28;20054;-60
2021/09/27 02:56:30;;;;;;;15.00;6.93;;;;;;;;;;5028432;28;20042;-61
2021/09/27 02:59:03;;;;;;;13.80;7.22;;;;;;;;;;5043810;28;20183;-59
2021/09/27 03:01:48;;;;;;;15.38;6.90;;;;;;;;;;5031036;28;20054;-60
2021/09/27 03:04:17;;;;;;;16.10;7.07;;;;;;;;;;5060145;28;20122;-59
2021/09/27 03:06:51;;;;;;;16.45;6.65;;;;;;;;;;5045594;28;20103;-59
2021/09/27 03:09:23;;;;;;;16.15;7.20;;;;;;;;;;5064978;28;20044;-59
2021/09/27 03:12:05;;;;;;;12.52;6.47;;;;;;;;;;5061848;28;20117;-60
2021/09/27 03:14:46;;;;;;;15.05;6.68;;;;;;;;;;5064696;28;20033;-56
2021/09/27 03:17:15;;;;;;;13.02;6.78;;;;;;;;;;5053437;28;20119;-54
2021/09/27 03:19:47;;;;;;;15.55;7.18;;;;;;;;;;5046943;28;20040;-60
2021/09/27 03:22:28;;;;;;;10.48;5.93;;;;;;;;;;5044850;28;20072;-50
2021/09/27 03:25:04;;;;;;;16.20;6.75;;;;;;;;;;5045943;28;20037;-55
2021/09/27 03:27:36;;;;;;;14.68;6.43;;;;;;;;;;5041165;28;20049;-53
2021/09/27 03:30:06;;;;;;;17.17;6.95;;;;;;;;;;5044517;28;20041;-56
2021/09/27 03:32:43;;;;;;;14.90;6.47;;;;;;;;;;5035466;28;20041;-58
2021/09/27 03:35:12;;;;;;;15.07;6.22;;;;;;;;;;5066673;28;20074;-56
2021/09/27 03:37:47;;;;;;;12.73;6.07;;;;;;;;;;5038598;28;20021;-58
2021/09/27 03:40:22;;;;;;;15.25;6.32;;;;;;;;;;5053831;28;20036;-54
2021/09/27 03:42:57;;;;;;;10.85;6.50;;;;;;;;;;5039646;28;20167;-59
2021/09/27 03:45:26;;;;;;;16.95;6.53;;;;;;;;;;5045626;28;20033;-52
2021/09/27 03:47:55;;;;;;;19.08;6.85;;;;;;;;;;5062616;28;20045;-54
2021/09/27 03:50:24;;;;;;;13.20;6.60;;;;;;;;;;5043587;28;20065;-52
2021/09/27 03:52:55;;;;;;;14.82;7.25;;;;;;;;;;5044801;28;20053;-57
2021/09/27 03:55:24;;;;;;;14.82;6.60;;;;;;;;;;5041045;28;20037;-54
2021/09/27 03:57:55;;;;;;;15.50;6.85;;;;;;;;;;5051850;28;20048;-53
2021/09/27 04:00:24;;;;;;;13.38;6.97;;;;;;;;;;5045170;28;20029;-55
2021/09/27 04:02:52;;;;;;;;;;;;;;;;;;5036573;28;20062;-57
2021/09/27 04:05:22;;;;;;;13.65;6.97;;;;;;;;;;5047950;28;19917;-55
2021/09/27 04:07:53;;;;;;;14.48;6.78;;;;;;;;;;5025104;28;20038;-54
2021/09/27 04:10:27;;;;;;;15.40;6.72;;;;;;;;;;5035065;28;20037;-54
2021/09/27 04:13:03;;;;;;;13.32;6.72;;;;;;;;;;5031989;28;20049;-57
2021/09/27 04:15:36;;;;;;;14.32;7.38;;;;;;;;;;5021763;28;20034;-54
2021/09/27 04:18:07;;;;;;;13.93;7.28;;;;;;;;;;5024406;28;20115;-55
2021/09/27 04:20:40;;;;;;;13.57;6.65;;;;;;;;;;5034149;28;20065;-56
2021/09/27 04:23:23;;;;;;;18.13;6.97;;;;;;;;;;5039636;28;20034;-61
2021/09/27 04:25:56;;;;;;;18.80;6.63;;;;;;;;;;5053106;28;20025;-57
2021/09/27 04:28:48;;;;;;;16.02;6.60;;;;;;;;;;5066334;28;20107;-57
2021/09/27 04:31:27;;;;;;;14.38;7.18;;;;;;;;;;5044989;28;20033;-55
2021/09/27 04:34:02;;;;;;;14.52;6.55;;;;;;;;;;5028469;28;20033;-60
2021/09/27 04:36:30;;;;;;;13.05;6.95;;;;;;;;;;5055255;28;20045;-59
2021/09/27 04:38:58;;;;;;;14.67;6.80;;;;;;;;;;5064432;28;20016;-60
2021/09/27 04:41:35;;;;;;;17.45;7.38;;;;;;;;;;5056553;28;20041;-60
2021/09/27 04:44:04;;;;;;;18.55;7.97;;;;;;;;;;5064275;28;20044;-60
2021/09/27 04:46:34;;;;;;;18.40;8.48;;;;;;;;;;5059358;28;20086;-61
2021/09/27 04:49:04;;;;;;;19.05;8.40;;;;;;;;;;5064224;28;20029;-61
2021/09/27 04:51:49;;;;;;;15.68;8.68;;;;;;;;;;5052242;28;20118;-55
2021/09/27 04:54:29;;;;;;;16.35;7.85;;;;;;;;;;5053879;28;20052;-56
2021/09/27 04:57:04;;;;;;;13.32;7.35;;;;;;;;;;5034582;28;20053;-56
2021/09/27 04:59:37;;;;;;;17.08;7.82;;;;;;;;;;5043172;28;20048;-55
2021/09/27 05:02:38;;;;;;;14.32;6.97;;;;;;;;;;5041239;28;20092;-54
2021/09/27 05:05:08;;;;;;;15.32;6.22;;;;;;;;;;4945753;28;20039;-53
2021/09/27 05:07:43;;;;;;;19.55;7.00;;;;;;;;;;4944250;28;20043;-53
2021/09/27 05:10:28;;;;;;;15.57;8.30;;;;;;;;;;5006862;28;20037;-55
2021/09/27 05:13:13;;;;;;;18.20;8.35;;;;;;;;;;5051403;28;20041;-54
2021/09/27 05:15:55;;;;;;;17.88;7.97;;;;;;;;;;5044019;28;20104;-53
2021/09/27 05:18:35;;;;;;;15.13;7.47;;;;;;;;;;5021316;28;20049;-53
2021/09/27 05:21:25;;;;;;;12.85;6.70;;;;;;;;;;5027240;28;20052;-53
2021/09/27 05:23:57;;;;;;;12.70;7.20;;;;;;;;;;5042610;28;20135;-53
2021/09/27 05:26:34;;;;;;;14.70;6.78;;;;;;;;;;5041980;28;20070;-54
2021/09/27 05:29:07;;;;;;;13.77;6.90;;;;;;;;;;5054275;28;20033;-55
2021/09/27 05:32:02;;;;;;;14.90;6.75;;;;;;;;;;5059684;28;20044;-54
2021/09/27 05:34:33;;;;;;;12.50;6.93;;;;;;;;;;5061970;28;20037;-55
2021/09/27 05:37:09;;;;;;;13.75;6.50;;;;;;;;;;5061673;28;20033;-53
2021/09/27 05:39:44;;;;;;;23.83;7.00;;;;;;;;;;5076093;28;20054;-55
2021/09/27 05:42:18;;;;;;;12.88;7.35;;;;;;;;;;5063438;28;20040;-53
2021/09/27 05:44:51;;;;;;;16.13;8.32;;;;;;;;;;5051295;28;20052;-60
2021/09/27 05:47:25;;;;;;;18.35;7.28;;;;;;;;;;5055692;28;20056;-57
2021/09/27 05:49:55;;;;;;;14.80;7.32;;;;;;;;;;5057910;28;20033;-52
2021/09/27 05:52:54;;;;;;;17.23;7.60;;;;;;;;;;5060359;28;20045;-60
2021/09/27 05:55:25;;;;;;;13.02;6.95;;;;;;;;;;5048252;28;20021;-59
2021/09/27 05:57:53;;;;;;;17.50;8.00;;;;;;;;;;5041376;28;20053;-57
2021/09/27 06:00:25;;;;;;;15.65;7.68;;;;;;;;;;5033255;28;20029;-57
2021/09/27 06:03:09;;;;;;;16.38;7.90;;;;;;;;;;5040670;28;20029;-59
2021/09/27 06:05:41;;;;;;;15.15;7.82;;;;;;;;;;5023613;28;20073;-60
2021/09/27 06:08:11;;;;;;;15.63;7.13;;;;;;;;;;5027921;28;20057;-59
2021/09/27 06:10:39;;;;;;;15.48;8.27;;;;;;;;;;5039583;28;20174;-57
2021/09/27 06:13:09;;;;;;;14.52;7.95;;;;;;;;;;5046368;28;20041;-58
2021/09/27 06:15:43;;;;;;;18.27;7.55;;;;;;;;;;5058794;28;20052;-60
2021/09/27 06:18:12;;;;;;;17.45;7.03;;;;;;;;;;5045707;28;20057;-59
2021/09/27 06:20:44;;;;;;;15.10;6.93;;;;;;;;;;5058236;28;20086;-60
2021/09/27 06:23:38;;;;;;;15.52;7.25;;;;;;;;;;5062588;28;20033;-60
2021/09/27 06:26:06;;;;;;;16.90;7.20;;;;;;;;;;5016611;28;20037;-59
2021/09/27 06:28:37;;;;;;;13.77;7.75;;;;;;;;;;5043497;28;20045;-60
2021/09/27 06:31:07;;;;;;;19.40;7.50;;;;;;;;;;5026889;28;20119;-59
2021/09/27 06:33:37;;;;;;;20.02;7.72;;;;;;;;;;5041901;28;20065;-58
2021/09/27 06:36:06;;;;;;;14.35;7.95;;;;;;;;;;5038581;28;20034;-55
2021/09/27 06:38:34;;;;;;;14.02;7.65;;;;;;;;;;5042550;28;20042;-59
2021/09/27 06:41:01;;;;;;;19.52;7.20;;;;;;;;;;5049827;28;20052;-59
2021/09/27 06:43:28;;;;;;;12.52;6.95;;;;;;;;;;5044939;28;20046;-54
2021/09/27 06:45:55;;;;;;;14.98;6.95;;;;;;;;;;5029703;28;20033;-55
2021/09/27 06:48:24;;;;;;;18.15;7.45;;;;;;;;;;5044122;28;20049;-56
2021/09/27 06:50:51;;;;;;;13.65;6.95;;;;;;;;;;5061213;28;20060;-60
2021/09/27 06:53:18;;;;;;;19.13;7.53;;;;;;;;;;5048631;28;20037;-53
2021/09/27 06:55:45;;;;;;;15.65;7.32;;;;;;;;;;5045513;28;20129;-59
2021/09/27 06:58:12;;;;;;;17.45;7.40;;;;;;;;;;5065792;28;20039;-58
2021/09/27 07:00:38;;;;;;;16.05;7.20;;;;;;;;;;5060786;28;20077;-58
2021/09/27 07:03:05;;;;;;;17.30;7.70;;;;;;;;;;5066009;28;20098;-56
2021/09/27 07:05:33;;;;;;;13.40;7.78;;;;;;;;;;5044994;28;20114;-58
2021/09/27 07:08:01;;;;;;;17.57;8.17;;;;;;;;;;5059222;28;20281;-59
2021/09/27 07:10:28;;;;;;;17.95;8.20;;;;;;;;;;5046733;28;20274;-57
2021/09/27 07:13:02;;;;;;;20.33;9.27;;;;;;;;;;5041570;28;20048;-60
2021/09/27 07:15:32;;;;;;;15.90;8.07;;;;;;;;;;5038612;28;20044;-58
2021/09/27 07:17:59;;;;;;;15.90;9.00;;;;;;;;;;5060678;28;20045;-60
2021/09/27 07:20:26;;;;;;;16.40;8.65;;;;;;;;;;5049804;28;20045;-60
2021/09/27 07:23:02;;;;;;;15.82;8.75;;;;;;;;;;5054115;28;20052;-57
2021/09/27 07:25:31;;;;;;;15.75;8.98;;;;;;;;;;5066080;28;20033;-58
2021/09/27 07:27:58;;;;;;;17.60;8.95;;;;;;;;;;5049409;28;20045;-56
2021/09/27 07:30:25;;;;;;;18.25;9.27;;;;;;;;;;5029422;28;20037;-58
2021/09/27 07:32:55;;;;;;;16.75;9.13;;;;;;;;;;5036297;28;20041;-56
2021/09/27 07:35:22;;;;;;;16.70;9.68;;;;;;;;;;5054823;28;20041;-53
2021/09/27 07:37:49;;;;;;;16.53;9.23;;;;;;;;;;5057265;28;20032;-59
2021/09/27 07:40:20;;;;;;;20.80;8.75;;;;;;;;;;5048243;28;20033;-59
2021/09/27 07:42:47;;;;;;;17.92;8.80;;;;;;;;;;5035399;28;20118;-59
2021/09/27 07:45:14;;;;;;;18.27;8.63;;;;;;;;;;5048497;28;20029;-55
2021/09/27 07:47:41;;;;;;;17.88;7.90;;;;;;;;;;5033927;28;20048;-60
2021/09/27 07:50:08;;;;;;;21.23;8.98;;;;;;;;;;5048715;28;20037;-59
2021/09/27 07:52:37;;;;;;;20.85;9.43;;;;;;;;;;5053857;28;20086;-60
2021/09/27 07:55:05;;;;;;;19.67;8.73;;;;;;;;;;5047807;28;20039;-60
2021/09/27 07:57:32;;;;;;;23.77;9.47;;;;;;;;;;5048108;28;20047;-60
2021/09/27 07:59:59;;;;;;;16.88;8.65;;;;;;;;;;5025709;28;20123;-60
2021/09/27 08:02:30;;;;;;;20.35;9.45;;;;;;;;;;5027610;28;20037;-60
2021/09/27 08:04:57;;;;;;;17.92;9.52;;;;;;;;;;5034728;28;20029;-61
2021/09/27 08:07:23;;;;;;;20.45;9.63;;;;;;;;;;5061095;28;20056;-59
2021/09/27 08:09:50;;;;;;;20.65;9.65;;;;;;;;;;5079166;28;20032;-54
2021/09/27 08:12:17;;;;;;;18.77;9.80;;;;;;;;;;5066234;28;20040;-53
2021/09/27 08:14:45;;;;;;;14.60;8.85;;;;;;;;;;5061781;28;20054;-57
2021/09/27 08:17:11;;;;;;;19.00;9.07;;;;;;;;;;5081826;28;20146;-56
2021/09/27 08:19:41;;;;;;;21.00;9.63;;;;;;;;;;5080031;28;20048;-53
2021/09/27 08:22:10;;;;;;;18.92;9.60;;;;;;;;;;5083848;28;20051;-50
2021/09/27 08:24:40;;;;;;;20.48;9.00;;;;;;;;;;5063974;28;20045;-57
2021/09/27 08:27:07;;;;;;;21.00;9.90;;;;;;;;;;5067739;28;20044;-57
2021/09/27 08:29:35;;;;;;;14.00;8.48;;;;;;;;;;5058249;28;20029;-59
2021/09/27 08:32:03;;;;;;;16.00;8.50;;;;;;;;;;5047430;28;20033;-60
2021/09/27 08:34:30;;;;;;;18.45;7.72;;;;;;;;;;5044717;28;20106;-56
2021/09/27 08:36:58;;;;;;;13.70;8.00;;;;;;;;;;5027442;28;20043;-54
2021/09/27 08:39:25;;;;;;;18.77;8.30;;;;;;;;;;5025376;28;20029;-53
2021/09/27 08:41:59;;;;;;;24.85;8.25;;;;;;;;;;5044319;28;20107;-60
2021/09/27 08:44:33;;;;;;;16.23;8.15;;;;;;;;;;5046551;28;20033;-56
2021/09/27 08:47:02;;;;;;;17.10;8.43;;;;;;;;;;5027583;28;20082;-58
2021/09/27 08:49:28;;;;;;;;;;;;;;;;;;5040255;28;20046;-54
2021/09/27 08:51:57;;;;;;;13.05;6.80;;;;;;;;;;5038021;28;19921;-55
2021/09/27 08:54:23;;;;;;;;;;;;;;;;;;5041519;28;20048;-55
2021/09/27 08:56:53;;;;;;;16.10;7.32;;;;;;;;;;5021981;28;19922;-54
2021/09/27 08:59:25;;;;;;;17.98;7.68;;;;;;;;;;5024271;28;20056;-56
2021/09/27 09:01:54;;;;;;;17.08;7.47;;;;;;;;;;5020805;28;20046;-58
2021/09/27 09:04:26;;;;;;;14.05;7.60;;;;;;;;;;5020982;28;20049;-57
2021/09/27 09:06:54;;;;;;;18.58;8.20;;;;;;;;;;5040156;28;20094;-60
2021/09/27 09:09:24;;;;;;;18.50;8.50;;;;;;;;;;5041606;28;20045;-58
2021/09/27 09:11:53;;;;;;;14.88;8.55;;;;;;;;;;5040094;28;20041;-51
2021/09/27 09:14:29;;;;;;;17.95;8.13;;;;;;;;;;5044413;28;20041;-57
2021/09/27 09:16:55;;;;;;;14.05;7.72;;;;;;;;;;5040166;28;20115;-57
2021/09/27 09:19:24;;;;;;;16.77;7.20;;;;;;;;;;5043896;28;20037;-54
2021/09/27 09:21:55;;;;;;;14.15;7.00;;;;;;;;;;5040808;28;20040;-56
2021/09/27 09:24:28;;;;;;;13.80;7.20;;;;;;;;;;5043492;28;20081;-55
2021/09/27 09:26:59;;;;;;;14.57;7.40;;;;;;;;;;5040587;28;20126;-57
2021/09/27 09:29:27;;;;;;;17.33;6.93;;;;;;;;;;5043554;28;20081;-57
2021/09/27 09:31:56;;;;;;;15.37;6.90;;;;;;;;;;5038053;28;20049;-61
2021/09/27 09:34:28;;;;;;;13.27;6.55;;;;;;;;;;5043118;28;20278;-61
2021/09/27 09:36:56;;;;;;;12.48;7.05;;;;;;;;;;5038796;28;20045;-62
2021/09/27 09:39:26;;;;;;;14.90;7.65;;;;;;;;;;5042351;28;20034;-58
2021/09/27 09:41:58;;;;;;;16.60;7.07;;;;;;;;;;5040621;28;20045;-60
2021/09/27 09:44:25;;;;;;;16.63;6.88;;;;;;;;;;5043218;28;20048;-55
2021/09/27 09:47:01;;;;;;;13.30;6.40;;;;;;;;;;5059004;28;20045;-60
2021/09/27 09:49:30;;;;;;;12.18;7.35;;;;;;;;;;5031418;28;20041;-60
2021/09/27 09:52:01;;;;;;;11.25;5.90;;;;;;;;;;5045324;28;20040;-61
2021/09/27 09:54:38;;;;;;;14.57;6.88;;;;;;;;;;5061279;28;20040;-57
2021/09/27 09:57:15;;;;;;;15.25;6.82;;;;;;;;;;5063187;28;20041;-58
2021/09/27 09:59:43;;;;;;;16.05;6.97;;;;;;;;;;5042205;28;20032;-57
2021/09/27 10:02:18;;;;;;;11.07;5.67;;;;;;;;;;5045750;28;20045;-58
2021/09/27 10:04:49;;;;;;;10.05;5.75;;;;;;;;;;5041537;28;20033;-57
2021/09/27 10:07:17;;;;;;;12.25;5.90;;;;;;;;;;5063039;28;20035;-59
2021/09/27 10:09:55;;;;;;;12.00;6.38;;;;;;;;;;5042636;28;20072;-58
2021/09/27 10:12:37;;;;;;;11.65;6.43;;;;;;;;;;5063283;28;20292;-56
2021/09/27 10:15:04;;;;;;;14.10;5.63;;;;;;;;;;5058749;28;20041;-58
2021/09/27 10:17:32;;;;;;;11.32;5.55;;;;;;;;;;5045050;28;20037;-59
2021/09/27 10:20:06;;;;;;;14.35;5.40;;;;;;;;;;5075308;28;20048;-59
2021/09/27 10:22:37;;;;;;;15.00;4.57;;;;;;;;;;5085659;28;20114;-56
2021/09/27 10:25:23;;;;;;;13.43;5.03;;;;;;;;;;5048733;28;20057;-59
2021/09/27 10:27:50;;;;;;;43.08;5.20;;;;;;;;;;5063790;28;20035;-52
2021/09/27 10:30:19;;;;;;;48.70;7.53;;;;;;;;;;5063393;28;20086;-59
2021/09/27 10:32:49;;;;;;;;;;;;;;;;;;5043243;28;20033;-56
2021/09/27 10:35:24;;;;;;;22.00;4.32;;;;;;;;;;5040562;28;19964;-56
2021/09/27 10:37:53;;;;;;;18.88;4.30;;;;;;;;;;5028883;28;20058;-58
2021/09/27 10:40:21;;;;;;;9.00;4.05;;;;;;;;;;5039742;28;20052;-55
2021/09/27 10:42:58;;;;;;;17.17;5.93;;;;;;;;;;5046547;28;20048;-56
2021/09/27 10:45:25;;;;;;;11.98;4.30;;;;;;;;;;5060513;28;20041;-58
2021/09/27 10:47:54;;;;;;;13.65;4.30;;;;;;;;;;5064623;28;20109;-58
2021/09/27 10:50:22;;;;;;;8.40;4.15;;;;;;;;;;5049457;28;20037;-58
2021/09/27 10:52:58;;;;;;;;;;;;;;;;;;5043307;28;20045;-53
2021/09/27 10:55:27;;;;;;;187.90;10.75;;;;;;;;;;5051135;28;19917;-56
2021/09/27 10:57:56;;;;;;;21.08;5.25;;;;;;;;;;5054951;28;20037;-57
2021/09/27 11:00:31;;;;;;;10.30;3.28;;;;;;;;;;5052930;28;20063;-61
2021/09/27 11:03:01;;;;;;;7.80;3.45;;;;;;;;;;5061095;28;20037;-59
2021/09/27 11:05:32;;;;;;;7.80;3.13;;;;;;;;;;5049548;28;20060;-59
2021/09/27 11:08:06;;;;;;;7.68;3.65;;;;;;;;;;5055334;28;20037;-62
2021/09/27 11:10:41;;;;;;;8.30;3.75;;;;;;;;;;5061265;28;20047;-59
2021/09/27 11:13:33;;;;;;;16.30;3.97;;;;;;;;;;5062736;28;20051;-59
2021/09/27 11:16:02;;;;;;;5.78;3.03;;;;;;;;;;5057718;28;20024;-54
2021/09/27 11:18:29;;;;;;;7.50;3.45;;;;;;;;;;5052579;28;20064;-59
2021/09/27 11:21:01;;;;;;;8.70;3.50;;;;;;;;;;5060111;28;20045;-55
2021/09/27 11:23:29;;;;;;;11.07;3.30;;;;;;;;;;5055409;28;20037;-56
2021/09/27 11:26:28;;;;;;;8.50;3.13;;;;;;;;;;5054819;28;20095;-60
2021/09/27 11:28:55;;;;;;;8.45;3.28;;;;;;;;;;5054288;28;20048;-58
2021/09/27 11:31:34;;;;;;;7.57;2.83;;;;;;;;;;5049499;28;20063;-58
2021/09/27 11:34:04;;;;;;;5.95;2.95;;;;;;;;;;5060158;28;20043;-60
2021/09/27 11:36:33;;;;;;;8.07;2.72;;;;;;;;;;5049864;28;20086;-54
2021/09/27 11:39:21;;;;;;;8.00;2.63;;;;;;;;;;5046048;28;20029;-58
2021/09/27 11:42:02;;;;;;;5.47;2.45;;;;;;;;;;5048652;28;20043;-58
2021/09/27 11:44:32;;;;;;;5.35;2.25;;;;;;;;;;5063989;28;20037;-60
2021/09/27 11:47:02;;;;;;;8.82;2.83;;;;;;;;;;5051132;28;20061;-58
2021/09/27 11:49:47;;;;;;;7.13;2.75;;;;;;;;;;5060490;28;20033;-60
2021/09/27 11:52:18;;;;;;;5.35;2.38;;;;;;;;;;5060215;28;20032;-55
2021/09/27 11:54:48;;;;;;;8.70;2.47;;;;;;;;;;5063996;28;20025;-60
2021/09/27 11:57:22;;;;;;;13.75;2.50;;;;;;;;;;5057513;28;20044;-57
2021/09/27 11:59:57;;;;;;;5.88;2.42;;;;;;;;;;5059186;28;20048;-55
2021/09/27 12:02:33;;;;;;;5.28;2.33;;;;;;;;;;5043477;28;20072;-55
2021/09/27 12:05:10;;;;;;;5.47;2.20;;;;;;;;;;5062164;28;20045;-58
2021/09/27 12:07:40;;;;;;;6.18;2.35;;;;;;;;;;5027285;28;20034;-59
2021/09/27 12:10:08;;;;;;;5.07;2.08;;;;;;;;;;5061559;28;20044;-60
2021/09/27 12:12:40;;;;;;;5.43;2.20;;;;;;;;;;5030702;28;20048;-57
2021/09/27 12:15:11;;;;;;;6.68;2.67;;;;;;;;;;5043480;28;20037;-61
2021/09/27 12:17:39;;;;;;;3.33;1.90;;;;;;;;;;5036873;28;20022;-57
2021/09/27 12:20:07;;;;;;;6.18;2.00;;;;;;;;;;5029862;28;20056;-56
2021/09/27 12:22:39;;;;;;;7.82;2.10;;;;;;;;;;5040125;28;20088;-57
2021/09/27 12:25:12;;;;;;;8.65;2.70;;;;;;;;;;5037643;28;20045;-59
2021/09/27 12:27:47;;;;;;;5.13;2.40;;;;;;;;;;5041034;28;20029;-57
2021/09/27 12:30:15;;;;;;;8.05;2.03;;;;;;;;;;5039935;28;20045;-59
2021/09/27 12:32:44;;;;;;;4.50;1.92;;;;;;;;;;5045876;28;20041;-60
2021/09/27 12:35:10;;;;;;;;;;;;;;;;;;5036137;28;20058;-55
2021/09/27 12:37:38;;;;;;;6.35;2.10;;;;;;;;;;5056661;28;19921;-61
2021/09/27 12:40:05;;;;;;;7.72;2.20;;;;;;;;;;5045768;28;20037;-61
2021/09/27 12:42:37;;;;;;;4.22;1.85;;;;;;;;;;5052017;28;20037;-60
2021/09/27 12:45:09;;;;;;;9.45;2.15;;;;;;;;;;5046997;28;20033;-59
2021/09/27 12:47:37;;;;;;;6.50;1.67;;;;;;;;;;5043925;28;20118;-59
2021/09/27 12:50:06;;;;;;;4.65;2.10;;;;;;;;;;5021971;28;20052;-60
2021/09/27 12:52:35;;;;;;;4.90;1.85;;;;;;;;;;5017756;28;20072;-61
2021/09/27 12:55:03;;;;;;;3.83;1.70;;;;;;;;;;5026115;28;20033;-61
2021/09/27 12:57:34;;;;;;;5.90;1.63;;;;;;;;;;5039942;28;20041;-59
2021/09/27 13:00:02;;;;;;;5.82;1.83;;;;;;;;;;5024083;28;20062;-60
2021/09/27 13:02:31;;;;;;;5.10;1.88;;;;;;;;;;5032884;28;20050;-60
2021/09/27 13:05:05;;;;;;;3.40;1.85;;;;;;;;;;5041692;28;20049;-61
2021/09/27 13:07:38;;;;;;;5.15;1.90;;;;;;;;;;5022397;28;20131;-57
2021/09/27 13:10:09;;;;;;;6.45;1.70;;;;;;;;;;5016585;28;20045;-58
2021/09/27 13:12:39;;;;;;;6.50;1.90;;;;;;;;;;5012882;28;20052;-59
2021/09/27 13:15:07;;;;;;;15.00;2.13;;;;;;;;;;5028198;28;20048;-59
2021/09/27 13:17:33;;;;;;;5.17;1.60;;;;;;;;;;5036731;28;20033;-57
2021/09/27 13:20:03;;;;;;;3.78;1.80;;;;;;;;;;5037579;28;20033;-58
2021/09/27 13:22:42;;;;;;;4.53;1.70;;;;;;;;;;5038032;28;20117;-57
2021/09/27 13:25:13;;;;;;;5.97;2.00;;;;;;;;;;5041548;28;20049;-54
2021/09/27 13:27:41;;;;;;;4.03;1.60;;;;;;;;;;5038618;28;20101;-62
2021/09/27 13:30:08;;;;;;;;;;;;;;;;;;5043365;28;20126;-58
2021/09/27 13:32:51;;;;;;;4.03;1.48;;;;;;;;;;5020207;28;20052;-58
2021/09/27 13:35:20;;;;;;;5.20;1.52;;;;;;;;;;5004951;28;20042;-59
2021/09/27 13:38:05;;;;;;;3.83;1.67;;;;;;;;;;5010618;28;20049;-59
2021/09/27 13:40:35;;;;;;;6.78;1.70;;;;;;;;;;5012117;28;20146;-58
2021/09/27 13:43:22;;;;;;;6.97;2.15;;;;;;;;;;5023892;28;20205;-56
2021/09/27 13:45:52;;;;;;;6.78;2.15;;;;;;;;;;5023221;28;20042;-55
2021/09/27 13:48:18;;;;;;;4.72;2.25;;;;;;;;;;5038579;28;20044;-58
2021/09/27 13:50:46;;;;;;;5.65;2.47;;;;;;;;;;5077158;28;20056;-55
2021/09/27 13:53:15;;;;;;;5.35;2.40;;;;;;;;;;5048613;28;20037;-60
2021/09/27 13:55:43;;;;;;;5.82;2.17;;;;;;;;;;5045684;28;20056;-58
2021/09/27 13:58:09;;;;;;;12.07;2.35;;;;;;;;;;5042675;28;20063;-58
2021/09/27 14:00:36;;;;;;;6.65;2.03;;;;;;;;;;5064957;28;20163;-55
2021/09/27 14:03:09;;;;;;;5.47;1.98;;;;;;;;;;5031485;28;20033;-57
2021/09/27 14:05:35;;;;;;;6.82;2.10;;;;;;;;;;5046022;28;20057;-60
2021/09/27 14:08:05;;;;;;;8.05;2.10;;;;;;;;;;5042535;28;20035;-54
2021/09/27 14:10:31;;;;;;;2.97;1.67;;;;;;;;;;5062945;28;20036;-57
2021/09/27 14:13:09;;;;;;;4.38;1.90;;;;;;;;;;5074237;28;20048;-60
2021/09/27 14:15:37;;;;;;;9.00;2.42;;;;;;;;;;5046935;28;20037;-60
2021/09/27 14:18:04;;;;;;;8.55;2.58;;;;;;;;;;5065026;28;20090;-60
2021/09/27 14:20:31;;;;;;;9.85;2.63;;;;;;;;;;5065959;28;20037;-59
2021/09/27 14:22:59;;;;;;;4.70;1.92;;;;;;;;;;5056085;28;20036;-62
2021/09/27 14:25:29;;;;;;;3.92;2.00;;;;;;;;;;5044888;28;20053;-64
2021/09/27 14:27:57;;;;;;;9.68;2.00;;;;;;;;;;5042565;28;20071;-61
2021/09/27 14:30:24;;;;;;;9.23;2.13;;;;;;;;;;5047894;28;20048;-63
2021/09/27 14:32:53;;;;;;;4.97;2.03;;;;;;;;;;5067923;28;20091;-63
2021/09/27 14:35:20;;;;;;;5.70;1.77;;;;;;;;;;5026746;28;20083;-64
2021/09/27 14:37:47;;;;;;;7.22;1.65;;;;;;;;;;5047972;28;20064;-61
2021/09/27 14:40:16;;;;;;;6.18;1.70;;;;;;;;;;5019625;28;20120;-58
2021/09/27 14:42:44;;;;;;;3.95;1.52;;;;;;;;;;5040284;28;20033;-59
2021/09/27 14:45:13;;;;;;;3.50;1.38;;;;;;;;;;5040661;28;20045;-62
2021/09/27 14:47:41;;;;;;;3.15;1.38;;;;;;;;;;5049559;28;20069;-60
2021/09/27 14:50:10;;;;;;;5.60;1.35;;;;;;;;;;5057988;28;20075;-63
2021/09/27 14:52:39;;;;;;;5.05;1.85;;;;;;;;;;5061961;28;20123;-59
2021/09/27 14:55:07;;;;;;;5.00;0.95;;;;;;;;;;5031719;28;20038;-60
2021/09/27 14:57:35;;;;;;;2.53;0.80;;;;;;;;;;5020665;28;20099;-61
2021/09/27 15:00:03;;;;;;;;;;;;;;;;;;5030299;28;20057;-63